SARE/RES METAR and TAF weather

Enter ICAO airport designator
Station Type Date Time Source
SARE METAR 2021/09/24 05:00 UTC NOAA

SARE 240500Z 21003KT CAVOK 13/11 Q1019


Station Type Date Time Source
SARE Decoded METAR 2021/09/24 05:00 UTC NOAA

Resistencia Aero., Argentina (SARE) 27-27S 059-03W 52M
Sep 24, 2021 - 01:00 AM EDT / 2021.09.24 0500 UTC
Wind: from the SSW (210 degrees) at 3 MPH (3 KT):0
Visibility: greater than 7 mile(s):0
Temperature: 55 F (13 C)
Dew Point: 51 F (11 C)
Relative Humidity: 87%
Pressure (altimeter): 30.09 in. Hg (1019 hPa)
ob: SARE 240500Z 21003KT CAVOK 13/11 Q1019
cycle: 5

Station Type Date Time Source
SARE TAF 2021/09/24 06:12 UTC NOAA

TAF TAF SARE 240500Z 2406/2506 VRB03KT CAVOK TX26/2419Z TN10/2410Z PROB30 2409/2412 7000 NSC
BECMG 2412/2414 14005KT CAVOK

Example: see airport list